createdAt,value
2022-12-31T00:00:35.012Z,6.90
2022-12-31T00:03:02.773Z,6.90
2022-12-31T00:05:31.777Z,6.90
2022-12-31T00:07:59.590Z,6.90
2022-12-31T00:10:26.884Z,6.80
2022-12-31T00:12:54.197Z,6.80
2022-12-31T00:15:21.659Z,6.80
2022-12-31T00:17:48.916Z,6.80
2022-12-31T00:20:16.695Z,6.70
2022-12-31T00:22:43.997Z,6.70
2022-12-31T00:25:11.320Z,6.60
2022-12-31T00:27:38.975Z,6.60
2022-12-31T00:30:06.893Z,6.60
2022-12-31T00:32:34.167Z,6.60
2022-12-31T00:35:01.485Z,6.60
2022-12-31T00:37:28.776Z,6.60
2022-12-31T00:39:56.507Z,6.60
2022-12-31T00:42:23.890Z,6.60
2022-12-31T00:44:51.161Z,6.60
2022-12-31T00:47:18.528Z,6.60
2022-12-31T00:49:45.963Z,6.70
2022-12-31T00:52:15.936Z,6.60
2022-12-31T00:54:43.377Z,6.60
2022-12-31T00:57:10.650Z,6.60
2022-12-31T00:59:37.972Z,6.60
2022-12-31T01:02:05.456Z,6.70
2022-12-31T01:04:32.846Z,6.60
2022-12-31T01:07:00.139Z,6.60
2022-12-31T01:09:27.829Z,6.60
2022-12-31T01:11:55.105Z,6.60
2022-12-31T01:14:22.831Z,6.70
2022-12-31T01:16:52.561Z,6.70
2022-12-31T01:19:26.709Z,6.70
2022-12-31T01:21:54.774Z,6.70
2022-12-31T01:24:22.668Z,6.60
2022-12-31T01:26:51.297Z,6.60
2022-12-31T01:29:18.907Z,6.60
2022-12-31T01:31:46.333Z,6.60
2022-12-31T01:34:13.823Z,6.60
2022-12-31T01:36:41.454Z,6.50
2022-12-31T01:39:09.484Z,6.50
2022-12-31T01:41:39.615Z,6.50
2022-12-31T01:44:12.908Z,6.50
2022-12-31T01:46:54.490Z,6.50
2022-12-31T01:49:38.821Z,6.50
2022-12-31T01:52:16.648Z,6.50
2022-12-31T01:55:05.933Z,6.50
2022-12-31T01:57:33.887Z,6.50
2022-12-31T02:00:01.849Z,6.40
2022-12-31T02:02:32.523Z,6.30
2022-12-31T02:05:04.471Z,6.30
2022-12-31T02:07:31.922Z,6.30
2022-12-31T02:10:00.146Z,6.20
2022-12-31T02:12:27.713Z,6.20
2022-12-31T02:14:56.009Z,6.20
2022-12-31T02:17:29.317Z,6.10
2022-12-31T02:19:59.487Z,6.20
2022-12-31T02:22:39.153Z,6.10
2022-12-31T02:25:37.467Z,6.20
2022-12-31T02:28:19.434Z,6.20
2022-12-31T02:30:51.808Z,6.20
2022-12-31T02:33:43.801Z,6.30
2022-12-31T02:36:20.521Z,6.30
2022-12-31T02:38:49.541Z,6.40
2022-12-31T02:41:38.341Z,6.40
2022-12-31T02:44:24.500Z,6.40
2022-12-31T02:47:09.897Z,6.40
2022-12-31T02:49:52.408Z,6.40
2022-12-31T02:52:28.594Z,6.40
2022-12-31T02:55:23.635Z,6.40
2022-12-31T02:58:03.464Z,6.40
2022-12-31T03:00:51.750Z,6.40
2022-12-31T03:03:20.333Z,6.30
2022-12-31T03:05:49.030Z,6.30
2022-12-31T03:08:24.778Z,6.20
2022-12-31T03:10:52.848Z,6.20
2022-12-31T03:13:20.464Z,6.20
2022-12-31T03:15:48.828Z,6.20
2022-12-31T03:18:18.596Z,6.20
2022-12-31T03:21:09.539Z,6.20
2022-12-31T03:23:42.878Z,6.20
2022-12-31T03:26:12.081Z,6.20
2022-12-31T03:28:42.207Z,6.20
2022-12-31T03:31:09.660Z,6.20
2022-12-31T03:33:39.770Z,6.20
2022-12-31T03:36:11.330Z,6.20
2022-12-31T03:38:38.852Z,6.20
2022-12-31T03:41:06.925Z,6.20
2022-12-31T03:43:34.310Z,6.10
2022-12-31T03:46:01.942Z,6.10
2022-12-31T03:48:29.272Z,6.10
2022-12-31T03:50:56.676Z,6.10
2022-12-31T03:53:24.323Z,6.10
2022-12-31T03:55:55.386Z,6.10
2022-12-31T03:58:22.942Z,6.20
2022-12-31T04:00:50.882Z,6.20
2022-12-31T04:03:18.661Z,6.20
2022-12-31T04:05:53.020Z,6.20
2022-12-31T04:08:20.322Z,6.30
2022-12-31T04:10:47.795Z,6.30
2022-12-31T04:13:15.184Z,6.30
2022-12-31T04:15:42.461Z,6.30
2022-12-31T04:18:09.872Z,6.30
2022-12-31T04:20:37.258Z,6.30
2022-12-31T04:23:04.665Z,6.30
2022-12-31T04:25:32.176Z,6.30
2022-12-31T04:27:59.451Z,6.30
2022-12-31T04:30:26.823Z,6.30
2022-12-31T04:32:54.435Z,6.30
2022-12-31T04:35:21.713Z,6.30
2022-12-31T04:37:49.098Z,6.40
2022-12-31T04:40:16.598Z,6.40
2022-12-31T04:42:43.966Z,6.40
2022-12-31T04:45:11.523Z,6.40
2022-12-31T04:47:38.837Z,6.50
2022-12-31T04:50:06.694Z,6.50
2022-12-31T04:52:40.334Z,6.50
2022-12-31T04:55:10.173Z,6.50
2022-12-31T04:57:37.452Z,6.40
2022-12-31T05:00:05.208Z,6.30
2022-12-31T05:02:32.600Z,6.30
2022-12-31T05:05:00.158Z,6.30
2022-12-31T05:07:27.782Z,6.30
2022-12-31T05:09:55.078Z,6.20
2022-12-31T05:12:22.364Z,6.30
2022-12-31T05:14:49.794Z,6.30
2022-12-31T05:17:17.639Z,6.20
2022-12-31T05:19:45.056Z,6.30
2022-12-31T05:22:30.322Z,6.30
2022-12-31T05:24:58.601Z,6.30
2022-12-31T05:27:27.169Z,6.40
2022-12-31T05:29:54.577Z,6.40
2022-12-31T05:32:22.135Z,6.50
2022-12-31T05:34:49.419Z,6.50
2022-12-31T05:37:16.817Z,6.60
2022-12-31T05:39:44.441Z,6.60
2022-12-31T05:42:11.709Z,6.70
2022-12-31T05:44:38.946Z,6.70
2022-12-31T05:47:06.257Z,6.70
2022-12-31T05:49:33.857Z,6.70
2022-12-31T05:52:01.537Z,6.70
2022-12-31T05:54:28.977Z,6.80
2022-12-31T05:56:56.282Z,6.80
2022-12-31T05:59:23.722Z,6.80
2022-12-31T06:01:51.502Z,6.80
2022-12-31T06:04:18.777Z,6.90
2022-12-31T06:06:46.093Z,6.90
2022-12-31T06:09:14.733Z,6.90
2022-12-31T06:11:42.714Z,7.00
2022-12-31T06:14:10.776Z,7.00
2022-12-31T06:16:39.175Z,7.00
2022-12-31T06:19:06.620Z,7.00
2022-12-31T06:21:34.117Z,7.00
2022-12-31T06:24:01.546Z,7.10
2022-12-31T06:26:28.799Z,7.10
2022-12-31T06:28:56.200Z,7.10
2022-12-31T06:31:23.889Z,7.20
2022-12-31T06:33:51.312Z,7.10
2022-12-31T06:36:19.108Z,7.20
2022-12-31T06:38:46.523Z,7.20
2022-12-31T06:41:16.445Z,7.20
2022-12-31T06:43:44.816Z,7.20
2022-12-31T06:46:15.019Z,7.20
2022-12-31T06:48:44.662Z,7.30
2022-12-31T06:51:18.045Z,7.20
2022-12-31T06:53:46.944Z,7.20
2022-12-31T06:56:20.478Z,7.30
2022-12-31T06:58:48.817Z,7.30
2022-12-31T07:01:38.189Z,7.30
2022-12-31T07:04:08.592Z,7.30
2022-12-31T07:07:13.192Z,7.30
2022-12-31T07:10:03.918Z,7.30
2022-12-31T07:12:53.003Z,7.40
2022-12-31T07:15:55.591Z,7.40
2022-12-31T07:18:44.467Z,7.50
2022-12-31T07:21:13.942Z,7.50
2022-12-31T07:23:42.781Z,7.50
2022-12-31T07:26:25.909Z,7.50
2022-12-31T07:28:56.200Z,7.60
2022-12-31T07:31:53.022Z,7.60
2022-12-31T07:34:32.707Z,7.60
2022-12-31T07:37:36.786Z,7.60
2022-12-31T07:40:36.246Z,7.70
2022-12-31T07:43:27.106Z,7.70
2022-12-31T07:46:16.206Z,7.80
2022-12-31T07:48:43.754Z,7.80
2022-12-31T07:51:11.756Z,7.90
2022-12-31T07:53:40.020Z,8.10
2022-12-31T07:56:10.374Z,8.10
2022-12-31T07:58:40.759Z,8.20
2022-12-31T08:01:17.753Z,8.30
2022-12-31T08:03:51.773Z,8.30
2022-12-31T08:06:47.099Z,8.40
2022-12-31T08:09:33.997Z,8.50
2022-12-31T08:12:02.993Z,8.50
2022-12-31T08:14:31.275Z,8.50
2022-12-31T08:16:58.848Z,8.50
2022-12-31T08:19:32.010Z,8.50
2022-12-31T08:22:18.326Z,8.70
2022-12-31T08:25:03.858Z,8.80
2022-12-31T08:28:00.956Z,8.90
2022-12-31T08:31:14.454Z,8.90
2022-12-31T08:33:51.263Z,8.90
2022-12-31T08:37:00.804Z,8.90
2022-12-31T08:39:37.151Z,8.90
2022-12-31T08:42:18.267Z,8.90
2022-12-31T08:45:09.198Z,8.90
2022-12-31T08:47:49.235Z,9.00
2022-12-31T08:50:19.126Z,9.10
2022-12-31T08:52:47.941Z,9.10
2022-12-31T08:55:19.444Z,9.30
2022-12-31T08:57:46.691Z,9.40
2022-12-31T09:00:17.754Z,9.40
2022-12-31T09:03:03.060Z,9.50
2022-12-31T09:06:28.071Z,9.50
2022-12-31T09:09:13.483Z,9.60
2022-12-31T09:11:59.727Z,9.60
2022-12-31T09:14:35.993Z,9.60
2022-12-31T09:17:50.073Z,9.60
2022-12-31T09:20:41.772Z,9.60
2022-12-31T09:23:12.092Z,9.50
2022-12-31T09:25:56.108Z,9.50
2022-12-31T09:28:34.672Z,9.40
2022-12-31T09:31:41.339Z,9.40
2022-12-31T09:34:27.733Z,9.40
2022-12-31T09:37:03.044Z,9.40
2022-12-31T09:39:30.250Z,9.20
2022-12-31T09:42:15.956Z,9.10
2022-12-31T09:45:17.269Z,9.20
2022-12-31T09:48:23.402Z,9.20
2022-12-31T09:51:12.887Z,9.30
2022-12-31T09:54:00.928Z,9.40
2022-12-31T09:56:35.576Z,9.40
2022-12-31T09:59:10.301Z,9.30
2022-12-31T10:02:16.769Z,9.30
2022-12-31T10:05:21.944Z,9.30
2022-12-31T10:07:58.386Z,9.30
2022-12-31T10:10:46.249Z,9.30
2022-12-31T10:13:31.573Z,9.20
2022-12-31T10:16:20.648Z,9.30
2022-12-31T10:19:06.170Z,9.40
2022-12-31T10:22:12.713Z,9.40
2022-12-31T10:24:51.645Z,9.40
2022-12-31T10:27:48.890Z,9.50
2022-12-31T10:30:22.707Z,9.60
2022-12-31T10:33:16.247Z,9.70
2022-12-31T10:35:49.520Z,9.90
2022-12-31T10:38:26.081Z,10.00
2022-12-31T10:41:34.867Z,10.00
2022-12-31T10:44:38.932Z,10.10
2022-12-31T10:47:18.501Z,10.30
2022-12-31T10:50:22.971Z,10.30
2022-12-31T10:53:18.213Z,10.50
2022-12-31T10:56:07.111Z,10.50
2022-12-31T10:58:59.050Z,10.50
2022-12-31T11:01:48.307Z,10.50
2022-12-31T11:05:00.296Z,10.60
2022-12-31T11:07:56.701Z,10.60
2022-12-31T11:10:48.104Z,10.70
2022-12-31T11:13:53.202Z,10.80
2022-12-31T11:16:48.515Z,11.00
2022-12-31T11:19:37.319Z,11.10
2022-12-31T11:22:30.972Z,11.30
2022-12-31T11:25:40.137Z,11.40
2022-12-31T11:28:19.459Z,11.40
2022-12-31T11:31:11.436Z,11.50
2022-12-31T11:33:59.312Z,11.60
2022-12-31T11:36:43.709Z,11.60
2022-12-31T11:39:31.014Z,11.70
2022-12-31T11:42:07.500Z,11.70
2022-12-31T11:44:38.405Z,11.70
2022-12-31T11:48:28.493Z,11.70
2022-12-31T11:50:42.528Z,11.70
2022-12-31T11:53:24.402Z,11.60
2022-12-31T11:56:12.722Z,11.70
2022-12-31T11:58:49.409Z,11.70
2022-12-31T12:01:31.019Z,11.80
2022-12-31T12:03:58.561Z,11.80
2022-12-31T12:06:30.115Z,11.80
2022-12-31T12:09:02.652Z,11.90
2022-12-31T12:11:37.753Z,11.80
2022-12-31T12:14:40.801Z,11.70
2022-12-31T12:17:10.816Z,11.60
2022-12-31T12:19:44.424Z,11.50
2022-12-31T12:22:22.163Z,11.50
2022-12-31T12:24:56.246Z,11.40
2022-12-31T12:27:28.392Z,11.50
2022-12-31T12:29:55.741Z,11.50
2022-12-31T12:32:25.842Z,11.50
2022-12-31T12:34:53.812Z,11.50
2022-12-31T12:37:27.337Z,11.40
2022-12-31T12:39:59.131Z,11.50
2022-12-31T12:42:26.947Z,11.50
2022-12-31T12:45:07.272Z,11.50
2022-12-31T12:47:35.230Z,11.50
2022-12-31T12:50:03.887Z,11.50
2022-12-31T12:52:42.807Z,11.50
2022-12-31T12:55:52.538Z,11.50
2022-12-31T12:58:53.409Z,11.60
2022-12-31T13:01:34.849Z,11.60
2022-12-31T13:04:38.828Z,11.60
2022-12-31T13:07:11.906Z,11.70
2022-12-31T13:09:55.040Z,11.70
2022-12-31T13:12:48.924Z,11.70
2022-12-31T13:15:34.180Z,11.70
2022-12-31T13:18:02.267Z,11.60
2022-12-31T13:20:49.717Z,11.60
2022-12-31T13:23:25.774Z,11.60
2022-12-31T13:26:10.515Z,11.50
2022-12-31T13:28:42.443Z,11.50
2022-12-31T13:31:15.037Z,11.60
2022-12-31T13:33:50.328Z,11.60
2022-12-31T13:36:20.765Z,11.60
2022-12-31T13:38:49.937Z,11.60
2022-12-31T13:41:25.785Z,11.60
2022-12-31T13:44:23.465Z,11.60
2022-12-31T13:47:00.796Z,11.60
2022-12-31T13:49:42.193Z,11.50
2022-12-31T13:52:27.563Z,11.50
2022-12-31T13:55:13.112Z,11.50
2022-12-31T13:57:40.706Z,11.40
2022-12-31T14:00:34.000Z,11.40
2022-12-31T14:03:26.632Z,11.40
2022-12-31T14:06:00.990Z,11.30
2022-12-31T14:08:28.608Z,11.40
2022-12-31T14:11:23.929Z,11.40
2022-12-31T14:14:22.208Z,11.40
2022-12-31T14:17:07.003Z,11.40
2022-12-31T14:20:00.360Z,11.40
2022-12-31T14:22:33.583Z,11.40
2022-12-31T14:25:02.649Z,11.30
2022-12-31T14:27:41.913Z,11.30
2022-12-31T14:30:30.887Z,11.20
2022-12-31T14:33:23.232Z,11.10
2022-12-31T14:35:55.595Z,11.10
2022-12-31T14:38:35.468Z,11.00
2022-12-31T14:41:18.523Z,10.90
2022-12-31T14:43:53.221Z,10.90
2022-12-31T14:47:18.829Z,10.90
2022-12-31T14:50:01.409Z,10.80
2022-12-31T14:52:33.947Z,10.70
2022-12-31T14:55:21.175Z,10.70
2022-12-31T15:00:39.903Z,10.60
2022-12-31T15:03:38.840Z,10.50
2022-12-31T15:06:34.300Z,10.50
2022-12-31T15:09:29.312Z,10.40
2022-12-31T15:12:15.409Z,10.40
2022-12-31T15:15:20.857Z,10.30
2022-12-31T15:18:17.235Z,10.30
2022-12-31T15:21:11.179Z,10.20
2022-12-31T15:23:42.533Z,10.10
2022-12-31T15:26:34.884Z,10.10
2022-12-31T15:29:28.293Z,10.10
2022-12-31T15:31:59.077Z,10.00
2022-12-31T15:34:35.904Z,10.00
2022-12-31T15:37:05.901Z,9.90
2022-12-31T15:39:40.941Z,9.90
2022-12-31T15:42:49.121Z,9.90
2022-12-31T15:45:39.343Z,9.90
2022-12-31T15:48:19.394Z,9.90
2022-12-31T15:50:47.441Z,10.00
2022-12-31T15:53:26.924Z,10.00
2022-12-31T15:55:56.317Z,10.00
2022-12-31T15:58:27.886Z,10.00
2022-12-31T16:01:03.472Z,10.00
2022-12-31T16:03:32.625Z,10.00
2022-12-31T16:06:03.390Z,10.10
2022-12-31T16:08:34.777Z,10.10
2022-12-31T16:11:05.428Z,10.10
2022-12-31T16:13:37.233Z,10.10
2022-12-31T16:16:07.666Z,10.10
2022-12-31T16:18:43.213Z,10.00
2022-12-31T16:21:37.434Z,10.00
2022-12-31T16:24:23.519Z,10.00
2022-12-31T16:26:54.279Z,10.00
2022-12-31T16:29:23.822Z,10.00
2022-12-31T16:31:53.812Z,10.10
2022-12-31T16:34:24.154Z,10.10
2022-12-31T16:37:02.822Z,10.20
2022-12-31T16:39:33.179Z,10.20
2022-12-31T16:42:22.930Z,10.30
2022-12-31T16:44:52.028Z,10.30
2022-12-31T16:47:24.756Z,10.30
2022-12-31T16:50:20.329Z,10.30
2022-12-31T16:52:50.791Z,10.30
2022-12-31T16:55:21.948Z,10.30
2022-12-31T16:58:03.976Z,10.30
2022-12-31T17:00:32.720Z,10.30
2022-12-31T17:03:09.244Z,10.30
2022-12-31T17:06:03.486Z,10.30
2022-12-31T17:09:02.329Z,10.30
2022-12-31T17:11:45.442Z,10.20
2022-12-31T17:14:17.618Z,10.10
2022-12-31T17:17:03.672Z,10.10
2022-12-31T17:19:45.058Z,10.00
2022-12-31T17:22:37.200Z,10.00
2022-12-31T17:25:18.773Z,9.90
2022-12-31T17:28:21.252Z,9.80
2022-12-31T17:30:48.978Z,9.80
2022-12-31T17:33:22.327Z,9.60
2022-12-31T17:35:56.455Z,9.50
2022-12-31T17:38:23.894Z,9.40
2022-12-31T17:40:54.248Z,9.30
2022-12-31T17:43:23.668Z,9.30
2022-12-31T17:45:51.964Z,9.20
2022-12-31T17:48:20.562Z,9.20
2022-12-31T17:50:49.824Z,9.10
2022-12-31T17:53:17.934Z,9.10
2022-12-31T17:55:48.010Z,9.10
2022-12-31T17:58:35.636Z,9.10
2022-12-31T18:01:06.610Z,9.10
2022-12-31T18:03:34.113Z,9.00
2022-12-31T18:06:01.535Z,8.90
2022-12-31T18:08:29.006Z,8.90
2022-12-31T18:10:56.664Z,8.80
2022-12-31T18:13:26.067Z,8.80
2022-12-31T18:15:54.174Z,8.80
2022-12-31T18:18:30.262Z,8.80
2022-12-31T18:21:13.905Z,8.70
2022-12-31T18:23:47.559Z,8.70
2022-12-31T18:26:23.877Z,8.70
2022-12-31T18:28:51.464Z,8.60
2022-12-31T18:31:25.080Z,8.60
2022-12-31T18:33:54.489Z,8.50
2022-12-31T18:36:23.640Z,8.50
2022-12-31T18:38:51.418Z,8.50
2022-12-31T18:41:26.808Z,8.50
2022-12-31T18:43:54.502Z,8.50
2022-12-31T18:46:24.329Z,8.50
2022-12-31T18:48:51.940Z,8.40
2022-12-31T18:51:26.481Z,8.40
2022-12-31T18:53:59.251Z,8.40
2022-12-31T18:56:26.608Z,8.30
2022-12-31T18:58:53.991Z,8.30
2022-12-31T19:01:32.908Z,8.20
2022-12-31T19:04:10.753Z,8.20
2022-12-31T19:06:37.998Z,8.10
2022-12-31T19:09:13.180Z,8.10
2022-12-31T19:11:53.487Z,8.10
2022-12-31T19:14:26.140Z,8.00
2022-12-31T19:16:54.770Z,8.00
2022-12-31T19:19:22.348Z,8.00
2022-12-31T19:21:49.656Z,8.00
2022-12-31T19:24:20.441Z,8.00
2022-12-31T19:26:47.796Z,8.00
2022-12-31T19:29:22.152Z,8.00
2022-12-31T19:31:49.955Z,8.00
2022-12-31T19:34:17.271Z,8.00
2022-12-31T19:36:45.038Z,7.90
2022-12-31T19:39:21.414Z,7.90
2022-12-31T19:41:54.649Z,7.90
2022-12-31T19:44:26.291Z,7.80
2022-12-31T19:46:53.993Z,7.80
2022-12-31T19:49:21.831Z,7.80
2022-12-31T19:51:49.403Z,7.70
2022-12-31T19:54:16.663Z,7.70
2022-12-31T19:56:44.098Z,7.60
2022-12-31T19:59:11.860Z,7.60
2022-12-31T20:01:39.489Z,7.60
2022-12-31T20:04:07.055Z,7.50
2022-12-31T20:06:34.498Z,7.40
2022-12-31T20:09:02.997Z,7.30
2022-12-31T20:11:30.429Z,7.20
2022-12-31T20:13:57.892Z,7.20
2022-12-31T20:16:31.517Z,7.20
2022-12-31T20:18:59.008Z,7.30
2022-12-31T20:21:28.676Z,7.30
2022-12-31T20:23:56.546Z,7.30
2022-12-31T20:26:25.214Z,7.30
2022-12-31T20:28:53.239Z,7.30
2022-12-31T20:31:24.817Z,7.30
2022-12-31T20:33:54.178Z,7.20
2022-12-31T20:36:22.465Z,7.10
2022-12-31T20:38:50.373Z,7.00
2022-12-31T20:41:20.200Z,7.00
2022-12-31T20:43:48.158Z,6.90
2022-12-31T20:46:21.876Z,6.90
2022-12-31T20:48:50.831Z,6.90
2022-12-31T20:51:19.543Z,6.90
2022-12-31T20:53:55.026Z,6.90
2022-12-31T20:56:24.240Z,6.80
2022-12-31T20:58:51.516Z,6.80
2022-12-31T21:01:19.331Z,6.80
2022-12-31T21:04:05.276Z,6.90
2022-12-31T21:06:34.608Z,6.90
2022-12-31T21:09:04.071Z,6.90
2022-12-31T21:11:50.036Z,6.80
2022-12-31T21:14:17.397Z,6.80
2022-12-31T21:16:44.899Z,6.80
2022-12-31T21:19:12.369Z,6.70
2022-12-31T21:21:39.807Z,6.70
2022-12-31T21:24:07.502Z,6.70
2022-12-31T21:26:34.882Z,6.70
2022-12-31T21:29:02.368Z,6.60
2022-12-31T21:31:29.677Z,6.60
2022-12-31T21:33:57.127Z,6.60
2022-12-31T21:36:24.465Z,6.60
2022-12-31T21:38:51.748Z,6.60
2022-12-31T21:41:37.606Z,6.60
2022-12-31T21:44:05.132Z,6.50
2022-12-31T21:46:32.696Z,6.50
2022-12-31T21:49:01.084Z,6.50
2022-12-31T21:51:29.268Z,6.50
2022-12-31T21:53:56.873Z,6.50
2022-12-31T21:56:24.399Z,6.50
2022-12-31T21:59:15.838Z,6.40
2022-12-31T22:02:02.077Z,6.40
2022-12-31T22:07:18.003Z,6.40
2022-12-31T22:09:45.244Z,6.30
2022-12-31T22:12:12.513Z,6.30
2022-12-31T22:14:39.893Z,6.30
2022-12-31T22:17:27.285Z,6.30
2022-12-31T22:20:25.241Z,6.20
2022-12-31T22:22:42.183Z,6.20
2022-12-31T22:25:09.759Z,6.10
2022-12-31T22:27:37.074Z,6.10
2022-12-31T22:30:05.871Z,6.10
2022-12-31T22:32:33.321Z,6.10
2022-12-31T22:35:01.057Z,6.10
2022-12-31T22:37:55.659Z,6.10
2022-12-31T22:40:16.468Z,6.10
2022-12-31T22:42:43.928Z,6.10
2022-12-31T22:45:11.506Z,6.10
2022-12-31T22:47:38.915Z,6.10
2022-12-31T22:50:06.952Z,6.10
2022-12-31T22:52:34.383Z,6.00
2022-12-31T22:55:01.675Z,6.00
2022-12-31T22:57:29.099Z,5.90
2022-12-31T22:59:56.515Z,5.90
2022-12-31T23:02:24.053Z,5.80
2022-12-31T23:04:51.741Z,5.80
2022-12-31T23:07:19.183Z,5.80
2022-12-31T23:10:04.977Z,5.80
2022-12-31T23:12:32.283Z,5.80
2022-12-31T23:15:17.964Z,5.80
2022-12-31T23:18:03.730Z,5.80
2022-12-31T23:20:49.956Z,5.70
2022-12-31T23:23:17.756Z,5.70
2022-12-31T23:25:45.139Z,5.70
2022-12-31T23:28:18.176Z,5.80
2022-12-31T23:30:45.859Z,5.80
2022-12-31T23:33:21.379Z,5.80
2022-12-31T23:35:49.042Z,5.70
2022-12-31T23:38:17.991Z,5.60
2022-12-31T23:40:46.231Z,5.40
2022-12-31T23:43:21.098Z,5.30
2022-12-31T23:45:50.283Z,5.30
2022-12-31T23:48:17.672Z,5.30
2022-12-31T23:50:50.846Z,5.30
2022-12-31T23:53:19.923Z,5.30
2022-12-31T23:55:47.179Z,5.30
2022-12-31T23:58:15.338Z,5.40
